PRIVATE WETTERSTATION BILLIGHEIM-ALLFELD                       ZURCK
Wetterdaten: Dienstag, 11.07.2017
Datum Zeit Temp. A. Temp. A. min Temp. A. max Feuchte A. Luftdruck Regen Wind Richtung Richtung Sonnenschein ET Solar Taupunkt Windchill Windben Empfang
11.07.2017 00:00 18,3 C 18,2 C 18,3 C 88 % 1009,7 hPa 0,4 l/m 4,8 km/h (1 Bft) W-SW 247 0 min 0,025 mm 0 W/m 16,3 C 18,3 C 17,7 km/h (3 Bft) 100 %
11.07.2017 00:10 18,1 C 18,1 C 18,2 C 89 % 1009,9 hPa 0,2 l/m 6,4 km/h (2 Bft) SW 225 0 min 0,000 mm 0 W/m 16,3 C 18,1 C 17,7 km/h (3 Bft) 100 %
11.07.2017 00:20 17,9 C 17,9 C 18,1 C 89 % 1010,0 hPa 0,2 l/m 6,4 km/h (2 Bft) S-SW 202 0 min 0,000 mm 0 W/m 16,1 C 17,9 C 14,5 km/h (3 Bft) 100 %
11.07.2017 00:30 17,7 C 17,7 C 17,9 C 89 % 1010,1 hPa 0,0 l/m 8,0 km/h (2 Bft) S-SW 202 0 min 0,000 mm 0 W/m 15,9 C 16,9 C 16,1 km/h (3 Bft) 100 %
11.07.2017 00:40 17,6 C 17,5 C 17,7 C 89 % 1010,1 hPa 0,0 l/m 8,0 km/h (2 Bft) S-SW 202 0 min 0,000 mm 0 W/m 15,8 C 16,8 C 19,3 km/h (3 Bft) 100 %
11.07.2017 00:50 17,4 C 17,4 C 17,5 C 90 % 1010,1 hPa 0,0 l/m 6,4 km/h (2 Bft) S-SW 202 0 min 0,000 mm 0 W/m 15,7 C 17,4 C 14,5 km/h (3 Bft) 99 %
11.07.2017 01:00 17,3 C 17,3 C 17,4 C 90 % 1010,0 hPa 0,2 l/m 6,4 km/h (2 Bft) S-SW 202 0 min 0,025 mm 0 W/m 15,6 C 17,3 C 12,9 km/h (3 Bft) 99 %
11.07.2017 01:10 17,3 C 17,3 C 17,3 C 90 % 1010,0 hPa 0,0 l/m 4,8 km/h (1 Bft) S-SO 157 0 min 0,000 mm 0 W/m 15,6 C 17,3 C 8,0 km/h (2 Bft) 99 %
11.07.2017 01:20 17,2 C 17,2 C 17,3 C 90 % 1010,0 hPa 0,0 l/m 4,8 km/h (1 Bft) S-SO 157 0 min 0,000 mm 0 W/m 15,5 C 17,2 C 11,3 km/h (2 Bft) 99 %
11.07.2017 01:30 17,1 C 17,1 C 17,2 C 90 % 1010,1 hPa 0,2 l/m 1,6 km/h (1 Bft) S-SO 157 0 min 0,000 mm 0 W/m 15,4 C 17,1 C 8,0 km/h (2 Bft) 99 %
11.07.2017 01:40 17,1 C 17,1 C 17,1 C 91 % 1010,1 hPa 0,0 l/m 3,2 km/h (1 Bft) S-SW 202 0 min 0,000 mm 0 W/m 15,6 C 17,1 C 16,1 km/h (3 Bft) 97 %
11.07.2017 01:50 17,0 C 17,0 C 17,1 C 91 % 1010,1 hPa 0,0 l/m 8,0 km/h (2 Bft) S-SW 202 0 min 0,000 mm 0 W/m 15,5 C 16,2 C 17,7 km/h (3 Bft) 98 %
11.07.2017 02:00 16,9 C 16,9 C 17,0 C 91 % 1010,3 hPa 0,2 l/m 8,0 km/h (2 Bft) S-SW 202 0 min 0,025 mm 0 W/m 15,4 C 16,1 C 19,3 km/h (3 Bft) 98 %
11.07.2017 02:10 16,9 C 16,9 C 16,9 C 91 % 1010,4 hPa 0,2 l/m 4,8 km/h (1 Bft) S-SW 202 0 min 0,000 mm 0 W/m 15,4 C 16,9 C 16,1 km/h (3 Bft) 98 %
11.07.2017 02:20 16,9 C 16,9 C 16,9 C 91 % 1010,3 hPa 0,0 l/m 6,4 km/h (2 Bft) S-SW 202 0 min 0,000 mm 0 W/m 15,4 C 16,9 C 17,7 km/h (3 Bft) 98 %
11.07.2017 02:30 16,9 C 16,9 C 16,9 C 91 % 1010,3 hPa 0,0 l/m 8,0 km/h (2 Bft) SW 225 0 min 0,000 mm 0 W/m 15,4 C 16,1 C 19,3 km/h (3 Bft) 98 %
11.07.2017 02:40 16,9 C 16,9 C 16,9 C 91 % 1010,2 hPa 0,0 l/m 9,7 km/h (2 Bft) S-SW 202 0 min 0,000 mm 0 W/m 15,4 C 15,3 C 24,1 km/h (4 Bft) 98 %
11.07.2017 02:50 16,8 C 16,8 C 16,9 C 91 % 1010,2 hPa 0,0 l/m 11,3 km/h (2 Bft) SW 225 0 min 0,000 mm 0 W/m 15,3 C 14,6 C 22,5 km/h (4 Bft) 97 %
11.07.2017 03:00 16,7 C 16,7 C 16,8 C 91 % 1010,3 hPa 0,0 l/m 8,0 km/h (2 Bft) SW 225 0 min 0,025 mm 0 W/m 15,2 C 15,9 C 22,5 km/h (4 Bft) 98 %
11.07.2017 03:10 16,6 C 16,6 C 16,7 C 91 % 1010,3 hPa 0,0 l/m 11,3 km/h (2 Bft) SW 225 0 min 0,000 mm 0 W/m 15,1 C 14,4 C 22,5 km/h (4 Bft) 98 %
11.07.2017 03:20 16,6 C 16,6 C 16,6 C 91 % 1010,3 hPa 0,0 l/m 9,7 km/h (2 Bft) W-SW 247 0 min 0,000 mm 0 W/m 15,1 C 15,0 C 32,2 km/h (5 Bft) 98 %
11.07.2017 03:30 16,4 C 16,4 C 16,6 C 91 % 1010,2 hPa 0,0 l/m 11,3 km/h (2 Bft) SW 225 0 min 0,000 mm 0 W/m 14,9 C 14,1 C 29,0 km/h (5 Bft) 97 %
11.07.2017 03:40 16,3 C 16,3 C 16,4 C 91 % 1010,3 hPa 0,0 l/m 9,7 km/h (2 Bft) SW 225 0 min 0,000 mm 0 W/m 14,8 C 14,7 C 25,7 km/h (4 Bft) 97 %
11.07.2017 03:50 16,3 C 16,3 C 16,4 C 91 % 1010,5 hPa 0,0 l/m 6,4 km/h (2 Bft) SW 225 0 min 0,000 mm 0 W/m 14,8 C 16,3 C 20,9 km/h (4 Bft) 98 %
11.07.2017 04:00 16,2 C 16,2 C 16,3 C 91 % 1010,4 hPa 0,0 l/m 9,7 km/h (2 Bft) SW 225 0 min 0,025 mm 0 W/m 14,7 C 14,6 C 24,1 km/h (4 Bft) 97 %
11.07.2017 04:10 16,2 C 16,2 C 16,2 C 91 % 1010,4 hPa 0,0 l/m 8,0 km/h (2 Bft) W-SW 247 0 min 0,000 mm 0 W/m 14,7 C 15,4 C 30,6 km/h (5 Bft) 98 %
11.07.2017 04:20 16,2 C 16,2 C 16,2 C 91 % 1010,4 hPa 0,0 l/m 4,8 km/h (1 Bft) W-SW 247 0 min 0,000 mm 0 W/m 14,7 C 16,2 C 17,7 km/h (3 Bft) 98 %
11.07.2017 04:30 16,1 C 16,1 C 16,2 C 91 % 1010,5 hPa 0,0 l/m 4,8 km/h (1 Bft) SW 225 0 min 0,000 mm 0 W/m 14,6 C 16,1 C 16,1 km/h (3 Bft) 97 %
11.07.2017 04:40 16,1 C 16,1 C 16,2 C 91 % 1010,6 hPa 0,0 l/m 3,2 km/h (1 Bft) SW 225 0 min 0,000 mm 0 W/m 14,6 C 16,1 C 24,1 km/h (4 Bft) 97 %
11.07.2017 04:50 16,1 C 16,1 C 16,1 C 91 % 1010,7 hPa 0,0 l/m 6,4 km/h (2 Bft) W-SW 247 0 min 0,000 mm 0 W/m 14,6 C 16,1 C 17,7 km/h (3 Bft) 97 %
11.07.2017 05:00 16,1 C 16,1 C 16,1 C 91 % 1010,9 hPa 0,0 l/m 3,2 km/h (1 Bft) W-SW 247 0 min 0,000 mm 0 W/m 14,6 C 16,1 C 17,7 km/h (3 Bft) 97 %
11.07.2017 05:10 16,1 C 16,1 C 16,1 C 91 % 1011,0 hPa 0,0 l/m 6,4 km/h (2 Bft) W 270 0 min 0,000 mm 0 W/m 14,6 C 16,1 C 19,3 km/h (3 Bft) 97 %
11.07.2017 05:20 16,1 C 16,1 C 16,1 C 91 % 1011,0 hPa 0,0 l/m 4,8 km/h (1 Bft) W 270 0 min 0,000 mm 0 W/m 14,6 C 16,1 C 17,7 km/h (3 Bft) 98 %
11.07.2017 05:30 16,0 C 16,0 C 16,1 C 91 % 1011,0 hPa 0,0 l/m 4,8 km/h (1 Bft) W 270 0 min 0,000 mm 0 W/m 14,5 C 16,0 C 17,7 km/h (3 Bft) 97 %
11.07.2017 05:40 16,0 C 15,9 C 16,0 C 91 % 1011,0 hPa 0,0 l/m 4,8 km/h (1 Bft) W 270 0 min 0,000 mm 0 W/m 14,5 C 16,0 C 17,7 km/h (3 Bft) 98 %
11.07.2017 05:50 16,0 C 16,0 C 16,0 C 91 % 1011,1 hPa 0,0 l/m 4,8 km/h (1 Bft) W-SW 247 0 min 0,000 mm 0 W/m 14,5 C 16,0 C 16,1 km/h (3 Bft) 98 %
11.07.2017 06:00 16,1 C 16,0 C 16,1 C 91 % 1011,0 hPa 0,0 l/m 4,8 km/h (1 Bft) SW 225 0 min 0,000 mm 7 W/m 14,6 C 16,1 C 16,1 km/h (3 Bft) 97 %
11.07.2017 06:10 16,1 C 16,1 C 16,1 C 91 % 1011,2 hPa 0,0 l/m 3,2 km/h (1 Bft) SW 225 0 min 0,000 mm 16 W/m 14,6 C 16,1 C 16,1 km/h (3 Bft) 97 %
11.07.2017 06:20 16,1 C 16,1 C 16,1 C 91 % 1011,2 hPa 0,0 l/m 4,8 km/h (1 Bft) SW 225 0 min 0,000 mm 19 W/m 14,6 C 16,1 C 17,7 km/h (3 Bft) 97 %
11.07.2017 06:30 16,1 C 16,1 C 16,2 C 91 % 1011,4 hPa 0,0 l/m 6,4 km/h (2 Bft) SW 225 0 min 0,000 mm 14 W/m 14,6 C 16,1 C 22,5 km/h (4 Bft) 98 %
11.07.2017 06:40 16,1 C 16,1 C 16,2 C 91 % 1011,4 hPa 0,0 l/m 9,7 km/h (2 Bft) SW 225 0 min 0,000 mm 16 W/m 14,6 C 14,5 C 19,3 km/h (3 Bft) 97 %
11.07.2017 06:50 16,2 C 16,1 C 16,2 C 91 % 1011,4 hPa 0,0 l/m 8,0 km/h (2 Bft) S-SW 202 0 min 0,000 mm 25 W/m 14,7 C 15,4 C 19,3 km/h (3 Bft) 98 %
11.07.2017 07:00 16,2 C 16,2 C 16,2 C 91 % 1011,4 hPa 0,0 l/m 8,0 km/h (2 Bft) SW 225 0 min 0,025 mm 37 W/m 14,7 C 15,4 C 20,9 km/h (4 Bft) 98 %
11.07.2017 07:10 16,2 C 16,2 C 16,2 C 91 % 1011,5 hPa 0,0 l/m 8,0 km/h (2 Bft) S-SW 202 0 min 0,000 mm 33 W/m 14,7 C 15,4 C 22,5 km/h (4 Bft) 97 %
11.07.2017 07:20 16,3 C 16,2 C 16,3 C 91 % 1011,5 hPa 0,0 l/m 8,0 km/h (2 Bft) SW 225 0 min 0,000 mm 86 W/m 14,8 C 15,5 C 20,9 km/h (4 Bft) 98 %
11.07.2017 07:30 16,4 C 16,3 C 16,4 C 91 % 1011,5 hPa 0,0 l/m 6,4 km/h (2 Bft) SW 225 0 min 0,000 mm 84 W/m 14,9 C 16,4 C 17,7 km/h (3 Bft) 97 %
11.07.2017 07:40 16,4 C 16,4 C 16,4 C 91 % 1011,6 hPa 0,0 l/m 9,7 km/h (2 Bft) SW 225 0 min 0,000 mm 69 W/m 14,9 C 14,8 C 20,9 km/h (4 Bft) 98 %
11.07.2017 07:50 16,4 C 16,4 C 16,4 C 91 % 1011,7 hPa 0,0 l/m 6,4 km/h (2 Bft) SW 225 0 min 0,000 mm 46 W/m 14,9 C 16,4 C 17,7 km/h (3 Bft) 97 %
11.07.2017 08:00 16,4 C 16,4 C 16,4 C 91 % 1011,7 hPa 0,0 l/m 8,0 km/h (2 Bft) SW 225 0 min 0,025 mm 67 W/m 14,9 C 15,6 C 20,9 km/h (4 Bft) 98 %
11.07.2017 08:10 16,5 C 16,4 C 16,5 C 91 % 1011,8 hPa 0,0 l/m 9,7 km/h (2 Bft) SW 225 0 min 0,000 mm 86 W/m 15,0 C 14,9 C 25,7 km/h (4 Bft) 98 %
11.07.2017 08:20 16,7 C 16,5 C 16,7 C 91 % 1012,0 hPa 0,0 l/m 9,7 km/h (2 Bft) SW 225 0 min 0,000 mm 146 W/m 15,2 C 15,1 C 20,9 km/h (4 Bft) 97 %
11.07.2017 08:30 16,7 C 16,7 C 16,8 C 91 % 1012,0 hPa 0,0 l/m 9,7 km/h (2 Bft) W-SW 247 0 min 0,000 mm 148 W/m 15,2 C 15,1 C 29,0 km/h (5 Bft) 98 %
11.07.2017 08:40 16,8 C 16,7 C 16,8 C 91 % 1012,1 hPa 0,0 l/m 9,7 km/h (2 Bft) W-SW 247 10 min 0,000 mm 260 W/m 15,3 C 15,2 C 22,5 km/h (4 Bft) 96 %
11.07.2017 08:50 16,9 C 16,8 C 17,0 C 91 % 1012,2 hPa 0,0 l/m 9,7 km/h (2 Bft) SW 225 10 min 0,000 mm 214 W/m 15,4 C 15,3 C 22,5 km/h (4 Bft) 98 %
11.07.2017 09:00 16,9 C 16,9 C 17,0 C 90 % 1012,3 hPa 0,0 l/m 8,0 km/h (2 Bft) W-SW 247 0 min 0,076 mm 121 W/m 15,2 C 16,1 C 25,7 km/h (4 Bft) 97 %
11.07.2017 09:10 17,0 C 16,9 C 17,0 C 90 % 1012,4 hPa 0,0 l/m 9,7 km/h (2 Bft) W-SW 247 10 min 0,000 mm 165 W/m 15,3 C 15,4 C 20,9 km/h (4 Bft) 97 %
11.07.2017 09:20 17,1 C 17,0 C 17,1 C 90 % 1012,5 hPa 0,0 l/m 11,3 km/h (2 Bft) W-SW 247 10 min 0,000 mm 218 W/m 15,4 C 14,9 C 22,5 km/h (4 Bft) 98 %
11.07.2017 09:30 17,4 C 17,1 C 17,4 C 90 % 1012,5 hPa 0,0 l/m 6,4 km/h (2 Bft) W 270 10 min 0,000 mm 388 W/m 15,7 C 17,4 C 17,7 km/h (3 Bft) 97 %
11.07.2017 09:40 17,7 C 17,4 C 17,7 C 89 % 1012,5 hPa 0,0 l/m 9,7 km/h (2 Bft) W 270 10 min 0,000 mm 490 W/m 15,9 C 16,2 C 22,5 km/h (4 Bft) 97 %
11.07.2017 09:50 18,2 C 17,7 C 18,2 C 88 % 1012,6 hPa 0,0 l/m 9,7 km/h (2 Bft) W 270 10 min 0,000 mm 659 W/m 16,2 C 16,8 C 27,4 km/h (4 Bft) 97 %
11.07.2017 10:00 19,1 C 18,2 C 19,1 C 84 % 1012,7 hPa 0,0 l/m 9,7 km/h (2 Bft) W 270 10 min 0,203 mm 696 W/m 16,3 C 17,8 C 22,5 km/h (4 Bft) 98 %
11.07.2017 10:10 19,6 C 19,1 C 19,6 C 82 % 1012,8 hPa 0,0 l/m 11,3 km/h (2 Bft) W-NW 292 10 min 0,000 mm 823 W/m 16,4 C 17,8 C 24,1 km/h (4 Bft) 97 %
11.07.2017 10:20 20,0 C 19,6 C 20,0 C 82 % 1012,8 hPa 0,0 l/m 11,3 km/h (2 Bft) W-SW 247 10 min 0,000 mm 802 W/m 16,8 C 18,2 C 27,4 km/h (4 Bft) 98 %
11.07.2017 10:30 20,5 C 20,0 C 20,6 C 76 % 1012,9 hPa 0,0 l/m 8,0 km/h (2 Bft) W 270 10 min 0,000 mm 847 W/m 16,1 C 19,9 C 22,5 km/h (4 Bft) 98 %
11.07.2017 10:40 20,2 C 20,2 C 20,5 C 79 % 1013,1 hPa 0,0 l/m 8,0 km/h (2 Bft) W 270 10 min 0,000 mm 784 W/m 16,4 C 19,6 C 22,5 km/h (4 Bft) 97 %
11.07.2017 10:50 20,0 C 20,0 C 20,2 C 78 % 1013,1 hPa 0,0 l/m 11,3 km/h (2 Bft) W 270 10 min 0,000 mm 807 W/m 16,0 C 18,2 C 25,7 km/h (4 Bft) 97 %
11.07.2017 11:00 19,8 C 19,7 C 20,0 C 78 % 1012,9 hPa 0,0 l/m 6,4 km/h (2 Bft) W-NW 292 10 min 0,279 mm 772 W/m 15,8 C 19,8 C 17,7 km/h (3 Bft) 97 %
11.07.2017 11:10 20,3 C 19,8 C 20,3 C 78 % 1012,9 hPa 0,0 l/m 6,4 km/h (2 Bft) W-NW 292 10 min 0,000 mm 796 W/m 16,3 C 20,3 C 17,7 km/h (3 Bft) 98 %
11.07.2017 11:20 20,6 C 20,3 C 20,6 C 78 % 1012,9 hPa 0,0 l/m 11,3 km/h (2 Bft) W 270 10 min 0,000 mm 833 W/m 16,6 C 18,9 C 22,5 km/h (4 Bft) 97 %
11.07.2017 11:30 21,4 C 20,7 C 21,4 C 75 % 1013,1 hPa 0,0 l/m 6,4 km/h (2 Bft) W-NW 292 10 min 0,000 mm 761 W/m 16,8 C 21,4 C 17,7 km/h (3 Bft) 98 %
11.07.2017 11:40 21,4 C 21,4 C 21,5 C 72 % 1013,0 hPa 0,0 l/m 4,8 km/h (1 Bft) W-SW 247 10 min 0,000 mm 434 W/m 16,1 C 21,4 C 19,3 km/h (3 Bft) 97 %
11.07.2017 11:50 21,8 C 21,4 C 21,8 C 72 % 1013,0 hPa 0,0 l/m 8,0 km/h (2 Bft) W-NW 292 10 min 0,000 mm 824 W/m 16,5 C 21,2 C 24,1 km/h (4 Bft) 97 %
11.07.2017 12:00 21,7 C 21,7 C 21,8 C 68 % 1013,1 hPa 0,0 l/m 11,3 km/h (2 Bft) W-SW 247 10 min 0,381 mm 742 W/m 15,5 C 20,2 C 27,4 km/h (4 Bft) 98 %
11.07.2017 12:10 21,2 C 21,2 C 21,7 C 70 % 1013,1 hPa 0,0 l/m 9,7 km/h (2 Bft) W-SW 247 10 min 0,000 mm 318 W/m 15,5 C 20,1 C 19,3 km/h (3 Bft) 97 %
11.07.2017 12:20 20,8 C 20,8 C 21,2 C 72 % 1013,1 hPa 0,0 l/m 11,3 km/h (2 Bft) SW 225 10 min 0,000 mm 353 W/m 15,6 C 19,1 C 24,1 km/h (4 Bft) 98 %
11.07.2017 12:30 20,6 C 20,6 C 20,8 C 72 % 1013,1 hPa 0,0 l/m 4,8 km/h (1 Bft) SW 225 10 min 0,000 mm 329 W/m 15,4 C 20,6 C 22,5 km/h (4 Bft) 97 %
11.07.2017 12:40 20,4 C 20,4 C 20,6 C 73 % 1013,1 hPa 0,0 l/m 8,0 km/h (2 Bft) SW 225 10 min 0,000 mm 526 W/m 15,4 C 19,8 C 20,9 km/h (4 Bft) 98 %
11.07.2017 12:50 20,7 C 20,4 C 20,7 C 70 % 1013,0 hPa 0,0 l/m 12,9 km/h (3 Bft) W-SW 247 10 min 0,000 mm 666 W/m 15,0 C 18,6 C 30,6 km/h (5 Bft) 98 %
11.07.2017 13:00 21,8 C 20,8 C 21,8 C 70 % 1012,9 hPa 0,0 l/m 9,7 km/h (2 Bft) SW 225 10 min 0,330 mm 1257 W/m 16,1 C 20,7 C 25,7 km/h (4 Bft) 97 %
11.07.2017 13:10 22,6 C 21,8 C 22,6 C 65 % 1012,9 hPa 0,0 l/m 6,4 km/h (2 Bft) SW 225 10 min 0,000 mm 1179 W/m 15,7 C 22,6 C 24,1 km/h (4 Bft) 98 %
11.07.2017 13:20 22,7 C 22,6 C 22,7 C 64 % 1012,9 hPa 0,0 l/m 12,9 km/h (3 Bft) W 270 10 min 0,000 mm 1197 W/m 15,5 C 20,9 C 32,2 km/h (5 Bft) 97 %
11.07.2017 13:30 22,4 C 22,4 C 22,7 C 63 % 1012,8 hPa 0,0 l/m 9,7 km/h (2 Bft) SW 225 10 min 0,000 mm 923 W/m 15,0 C 21,4 C 32,2 km/h (5 Bft) 98 %
11.07.2017 13:40 21,9 C 21,9 C 22,4 C 64 % 1012,9 hPa 0,0 l/m 12,9 km/h (3 Bft) SW 225 10 min 0,000 mm 489 W/m 14,8 C 20,0 C 29,0 km/h (5 Bft) 97 %
11.07.2017 13:50 21,5 C 21,5 C 21,9 C 69 % 1012,8 hPa 0,0 l/m 9,7 km/h (2 Bft) S-SW 202 10 min 0,000 mm 448 W/m 15,6 C 20,4 C 24,1 km/h (4 Bft) 98 %
11.07.2017 14:00 21,4 C 21,4 C 21,5 C 67 % 1013,0 hPa 0,0 l/m 9,7 km/h (2 Bft) S-SW 202 10 min 0,356 mm 462 W/m 15,0 C 20,3 C 24,1 km/h (4 Bft) 97 %
11.07.2017 14:10 21,5 C 21,4 C 21,5 C 68 % 1013,0 hPa 0,0 l/m 16,1 km/h (3 Bft) S-SW 202 10 min 0,000 mm 673 W/m 15,3 C 18,8 C 30,6 km/h (5 Bft) 97 %
11.07.2017 14:20 21,7 C 21,5 C 21,8 C 67 % 1012,8 hPa 0,0 l/m 14,5 km/h (3 Bft) S-SW 202 10 min 0,000 mm 789 W/m 15,3 C 19,4 C 30,6 km/h (5 Bft) 98 %
11.07.2017 14:30 21,3 C 21,3 C 21,7 C 68 % 1012,7 hPa 0,0 l/m 12,9 km/h (3 Bft) S-SW 202 10 min 0,000 mm 276 W/m 15,1 C 19,3 C 24,1 km/h (4 Bft) 97 %
11.07.2017 14:40 21,1 C 21,1 C 21,3 C 70 % 1012,8 hPa 0,0 l/m 9,7 km/h (2 Bft) SW 225 10 min 0,000 mm 420 W/m 15,4 C 19,9 C 20,9 km/h (4 Bft) 98 %
11.07.2017 14:50 21,6 C 21,1 C 21,6 C 69 % 1012,8 hPa 0,0 l/m 14,5 km/h (3 Bft) S-SW 202 10 min 0,000 mm 951 W/m 15,7 C 19,3 C 32,2 km/h (5 Bft) 97 %
11.07.2017 15:00 22,3 C 21,6 C 22,3 C 68 % 1012,8 hPa 0,0 l/m 12,9 km/h (3 Bft) SW 225 10 min 0,381 mm 1023 W/m 16,1 C 20,5 C 25,7 km/h (4 Bft) 97 %
11.07.2017 15:10 22,5 C 22,3 C 22,5 C 64 % 1012,9 hPa 0,0 l/m 16,1 km/h (3 Bft) S-SW 202 10 min 0,000 mm 923 W/m 15,3 C 20,1 C 30,6 km/h (5 Bft) 98 %
11.07.2017 15:20 22,4 C 22,4 C 22,6 C 66 % 1012,8 hPa 0,0 l/m 11,3 km/h (2 Bft) SW 225 10 min 0,000 mm 621 W/m 15,7 C 21,0 C 24,1 km/h (4 Bft) 97 %
11.07.2017 15:30 22,7 C 22,4 C 22,7 C 62 % 1012,9 hPa 0,0 l/m 8,0 km/h (2 Bft) SW 225 10 min 0,000 mm 360 W/m 15,0 C 22,2 C 22,5 km/h (4 Bft) 98 %
11.07.2017 15:40 22,9 C 22,7 C 22,9 C 60 % 1012,7 hPa 0,0 l/m 9,7 km/h (2 Bft) S-SW 202 10 min 0,000 mm 230 W/m 14,7 C 21,9 C 22,5 km/h (4 Bft) 97 %
11.07.2017 15:50 23,1 C 22,9 C 23,1 C 67 % 1012,6 hPa 0,0 l/m 8,0 km/h (2 Bft) W 270 10 min 0,000 mm 301 W/m 16,6 C 22,6 C 20,9 km/h (4 Bft) 98 %
11.07.2017 16:00 23,4 C 23,1 C 23,4 C 60 % 1012,5 hPa 0,0 l/m 9,7 km/h (2 Bft) S-SW 202 10 min 0,279 mm 631 W/m 15,2 C 22,5 C 25,7 km/h (4 Bft) 97 %
11.07.2017 16:10 22,9 C 22,9 C 23,4 C 64 % 1012,7 hPa 0,0 l/m 11,3 km/h (2 Bft) S-SW 202 10 min 0,000 mm 661 W/m 15,7 C 21,5 C 25,7 km/h (4 Bft) 98 %
11.07.2017 16:20 22,9 C 22,9 C 23,0 C 63 % 1012,6 hPa 0,0 l/m 9,7 km/h (2 Bft) SW 225 10 min 0,000 mm 671 W/m 15,5 C 21,9 C 20,9 km/h (4 Bft) 97 %
11.07.2017 16:30 22,8 C 22,8 C 22,9 C 63 % 1012,5 hPa 0,0 l/m 6,4 km/h (2 Bft) S-SW 202 10 min 0,000 mm 352 W/m 15,4 C 22,8 C 20,9 km/h (4 Bft) 97 %
11.07.2017 16:40 22,8 C 22,8 C 22,8 C 63 % 1012,5 hPa 0,0 l/m 6,4 km/h (2 Bft) S-SW 202 10 min 0,000 mm 406 W/m 15,4 C 22,8 C 19,3 km/h (3 Bft) 98 %
11.07.2017 16:50 22,9 C 22,8 C 22,9 C 63 % 1012,4 hPa 0,0 l/m 6,4 km/h (2 Bft) W-NW 292 10 min 0,000 mm 320 W/m 15,5 C 22,9 C 17,7 km/h (3 Bft) 97 %
11.07.2017 17:00 22,9 C 22,9 C 23,0 C 62 % 1012,4 hPa 0,0 l/m 8,0 km/h (2 Bft) SW 225 10 min 0,254 mm 281 W/m 15,2 C 22,4 C 22,5 km/h (4 Bft) 98 %
11.07.2017 17:10 22,8 C 22,8 C 22,9 C 63 % 1012,2 hPa 0,0 l/m 4,8 km/h (1 Bft) W-SW 247 10 min 0,000 mm 304 W/m 15,4 C 22,8 C 17,7 km/h (3 Bft) 97 %
11.07.2017 17:20 22,7 C 22,7 C 22,8 C 63 % 1012,0 hPa 0,0 l/m 3,2 km/h (1 Bft) S-SW 202 10 min 0,000 mm 278 W/m 15,3 C 22,7 C 19,3 km/h (3 Bft) 98 %
11.07.2017 17:30 22,6 C 22,6 C 22,6 C 65 % 1011,8 hPa 0,0 l/m 1,6 km/h (1 Bft) W-SW 247 10 min 0,000 mm 301 W/m 15,7 C 22,6 C 9,7 km/h (2 Bft) 98 %
11.07.2017 17:40 22,8 C 22,6 C 22,8 C 63 % 1011,8 hPa 0,0 l/m 3,2 km/h (1 Bft) W-SW 247 10 min 0,000 mm 295 W/m 15,4 C 22,8 C 16,1 km/h (3 Bft) 97 %
11.07.2017 17:50 23,4 C 22,8 C 23,4 C 64 % 1011,9 hPa 0,0 l/m 1,6 km/h (1 Bft) SW 225 10 min 0,000 mm 265 W/m 16,2 C 23,4 C 17,7 km/h (3 Bft) 98 %
11.07.2017 18:00 23,5 C 23,4 C 23,7 C 59 % 1012,1 hPa 0,0 l/m 8,0 km/h (2 Bft) W-SW 247 10 min 0,178 mm 209 W/m 15,0 C 23,0 C 20,9 km/h (4 Bft) 97 %
11.07.2017 18:10 23,1 C 23,1 C 23,5 C 61 % 1012,0 hPa 0,0 l/m 4,8 km/h (1 Bft) SW 225 10 min 0,000 mm 220 W/m 15,2 C 23,1 C 17,7 km/h (3 Bft) 98 %
11.07.2017 18:20 23,1 C 23,1 C 23,2 C 61 % 1011,9 hPa 0,0 l/m 3,2 km/h (1 Bft) SW 225 10 min 0,000 mm 192 W/m 15,2 C 23,1 C 16,1 km/h (3 Bft) 97 %
11.07.2017 18:30 22,8 C 22,8 C 23,1 C 62 % 1011,9 hPa 0,0 l/m 1,6 km/h (1 Bft) W-SW 247 10 min 0,000 mm 158 W/m 15,1 C 22,8 C 9,7 km/h (2 Bft) 89 %
11.07.2017 18:40 22,7 C 22,7 C 22,8 C 63 % 1011,9 hPa 0,0 l/m 0,0 km/h (0 Bft) W-SW 247 0 min 0,000 mm 146 W/m 15,3 C 22,7 C 11,3 km/h (2 Bft) 96 %
11.07.2017 18:50 22,4 C 22,4 C 22,6 C 63 % 1011,9 hPa 0,0 l/m 1,6 km/h (1 Bft) S-SW 202 0 min 0,000 mm 130 W/m 15,0 C 22,4 C 19,3 km/h (3 Bft) 97 %
11.07.2017 19:00 22,2 C 22,2 C 22,4 C 63 % 1011,7 hPa 0,0 l/m 1,6 km/h (1 Bft) S-SW 202 0 min 0,102 mm 127 W/m 14,8 C 22,2 C 17,7 km/h (3 Bft) 98 %
11.07.2017 19:10 22,1 C 22,1 C 22,2 C 65 % 1011,8 hPa 0,0 l/m 0,0 km/h (0 Bft) SW 225 0 min 0,000 mm 116 W/m 15,2 C 22,1 C 9,7 km/h (2 Bft) 97 %
11.07.2017 19:20 21,8 C 21,8 C 22,1 C 64 % 1011,8 hPa 0,0 l/m 1,6 km/h (1 Bft) S-SW 202 0 min 0,000 mm 83 W/m 14,7 C 21,8 C 14,5 km/h (3 Bft) 98 %
11.07.2017 19:30 21,7 C 21,7 C 21,8 C 64 % 1011,9 hPa 0,0 l/m 1,6 km/h (1 Bft) S-SW 202 0 min 0,000 mm 107 W/m 14,6 C 21,7 C 12,9 km/h (3 Bft) 97 %
11.07.2017 19:40 21,6 C 21,6 C 21,7 C 65 % 1012,0 hPa 0,0 l/m 1,6 km/h (1 Bft) S-SW 202 0 min 0,000 mm 69 W/m 14,7 C 21,6 C 11,3 km/h (2 Bft) 97 %
11.07.2017 19:50 21,3 C 21,3 C 21,6 C 64 % 1011,9 hPa 0,0 l/m 1,6 km/h (1 Bft) S-SW 202 0 min 0,000 mm 30 W/m 14,2 C 21,3 C 11,3 km/h (2 Bft) 98 %
11.07.2017 20:00 21,1 C 21,1 C 21,3 C 66 % 1012,0 hPa 0,0 l/m 0,0 km/h (0 Bft) SW 225 0 min 0,051 mm 39 W/m 14,5 C 21,1 C 3,2 km/h (1 Bft) 97 %
11.07.2017 20:10 20,9 C 20,9 C 21,1 C 67 % 1012,1 hPa 0,0 l/m 0,0 km/h (0 Bft) SW 225 0 min 0,000 mm 39 W/m 14,5 C 20,9 C 6,4 km/h (2 Bft) 98 %
11.07.2017 20:20 20,8 C 20,8 C 20,9 C 66 % 1012,2 hPa 0,0 l/m 0,0 km/h (0 Bft) W-SW 247 0 min 0,000 mm 40 W/m 14,2 C 20,8 C 6,4 km/h (2 Bft) 97 %
11.07.2017 20:30 20,7 C 20,7 C 20,8 C 70 % 1012,4 hPa 0,0 l/m 3,2 km/h (1 Bft) NW 315 0 min 0,000 mm 12 W/m 15,0 C 20,7 C 19,3 km/h (3 Bft) 98 %
11.07.2017 20:40 20,4 C 20,4 C 20,7 C 74 % 1012,4 hPa 0,0 l/m 4,8 km/h (1 Bft) W-NW 292 0 min 0,000 mm 12 W/m 15,6 C 20,4 C 20,9 km/h (4 Bft) 97 %
11.07.2017 20:50 20,0 C 20,0 C 20,4 C 76 % 1012,2 hPa 0,0 l/m 1,6 km/h (1 Bft) N-NW 337 0 min 0,000 mm 30 W/m 15,6 C 20,0 C 14,5 km/h (3 Bft) 98 %
11.07.2017 21:00 19,5 C 19,5 C 20,0 C 79 % 1012,2 hPa 0,0 l/m 0,0 km/h (0 Bft) NW 315 0 min 0,025 mm 28 W/m 15,8 C 19,5 C 9,7 km/h (2 Bft) 98 %
11.07.2017 21:10 19,1 C 19,1 C 19,5 C 81 % 1012,2 hPa 0,0 l/m 0,0 km/h (0 Bft) N-NW 337 0 min 0,000 mm 19 W/m 15,8 C 19,1 C 1,6 km/h (1 Bft) 97 %
11.07.2017 21:20 18,7 C 18,7 C 19,1 C 81 % 1012,3 hPa 0,0 l/m 0,0 km/h (0 Bft) N 0 0 min 0,000 mm 11 W/m 15,4 C 18,7 C 0,0 km/h (0 Bft) 98 %
11.07.2017 21:30 18,3 C 18,3 C 19,1 C 82 % 1012,3 hPa 0,0 l/m 0,0 km/h (0 Bft) N-NW 339 0 min 0,000 mm 0 W/m 15,2 C 18,3 C 0,0 km/h (0 Bft) 100 %
11.07.2017 21:40 17,9 C 17,9 C 18,3 C 83 % 1012,3 hPa 0,0 l/m 0,0 km/h (0 Bft) N-NW 339 0 min 0,000 mm 0 W/m 15,0 C 17,9 C 0,0 km/h (0 Bft) 100 %
11.07.2017 21:50 17,4 C 17,4 C 17,9 C 84 % 1012,4 hPa 0,0 l/m 0,0 km/h (0 Bft) N-NW 339 0 min 0,000 mm 0 W/m 14,7 C 17,4 C 0,0 km/h (0 Bft) 100 %
11.07.2017 22:00 17,1 C 17,1 C 17,4 C 85 % 1012,5 hPa 0,0 l/m 0,0 km/h (0 Bft) N 0 0 min 0,000 mm 0 W/m 14,6 C 17,1 C 0,0 km/h (0 Bft) 98 %
11.07.2017 22:10 16,9 C 16,9 C 17,1 C 86 % 1012,6 hPa 0,0 l/m 0,0 km/h (0 Bft) N 0 0 min 0,000 mm 0 W/m 14,5 C 16,9 C 0,0 km/h (0 Bft) 97 %
11.07.2017 22:20 16,8 C 16,8 C 16,9 C 87 % 1012,5 hPa 0,0 l/m 0,0 km/h (0 Bft) N 0 0 min 0,000 mm 0 W/m 14,6 C 16,8 C 0,0 km/h (0 Bft) 97 %
11.07.2017 22:30 16,8 C 16,8 C 16,8 C 88 % 1012,7 hPa 0,0 l/m 0,0 km/h (0 Bft) N 0 0 min 0,000 mm 0 W/m 14,8 C 16,8 C 0,0 km/h (0 Bft) 98 %
11.07.2017 22:40 16,7 C 16,7 C 16,8 C 88 % 1012,8 hPa 0,0 l/m 0,0 km/h (0 Bft) N 0 0 min 0,000 mm 0 W/m 14,7 C 16,7 C 0,0 km/h (0 Bft) 97 %
11.07.2017 22:50 16,6 C 16,6 C 16,7 C 88 % 1012,8 hPa 0,0 l/m 0,0 km/h (0 Bft) N 0 0 min 0,000 mm 0 W/m 14,6 C 16,6 C 0,0 km/h (0 Bft) 98 %
11.07.2017 23:00 16,6 C 16,6 C 16,6 C 89 % 1012,8 hPa 0,0 l/m 0,0 km/h (0 Bft) N 0 0 min 0,000 mm 0 W/m 14,8 C 16,6 C 0,0 km/h (0 Bft) 97 %
11.07.2017 23:10 16,5 C 16,5 C 16,6 C 89 % 1012,9 hPa 0,0 l/m 0,0 km/h (0 Bft) N 0 0 min 0,000 mm 0 W/m 14,7 C 16,5 C 0,0 km/h (0 Bft) 97 %
11.07.2017 23:20 16,6 C 16,5 C 16,6 C 89 % 1012,9 hPa 0,0 l/m 0,0 km/h (0 Bft) N 0 0 min 0,000 mm 0 W/m 14,8 C 16,6 C 0,0 km/h (0 Bft) 98 %
11.07.2017 23:30 16,6 C 16,6 C 16,6 C 89 % 1012,8 hPa 0,0 l/m 0,0 km/h (0 Bft) N 0 0 min 0,000 mm 0 W/m 14,8 C 16,6 C 0,0 km/h (0 Bft) 97 %
11.07.2017 23:40 16,5 C 16,5 C 16,6 C 90 % 1013,1 hPa 0,0 l/m 0,0 km/h (0 Bft) S-SW 202 0 min 0,000 mm 0 W/m 14,9 C 16,5 C 9,7 km/h (2 Bft) 98 %
11.07.2017 23:50 16,4 C 16,4 C 16,5 C 90 % 1012,8 hPa 0,2 l/m 1,6 km/h (1 Bft) S-SW 202 0 min 0,000 mm 0 W/m 14,8 C 16,4 C 11,3 km/h (2 Bft) 97 %
_ Min-Zeit 05:40 05:40 05:40 18:00 00:00 - 18:40 - - - - - 19:50 03:30 21:20 18:30
Minimum _ 15,9 C 15,9 C 16,0 C 59 % 1009,7 hPa - 0,0 km/h (0 Bft) - - - - - 14,2 C 14,1 C 0,0 km/h (0 Bft) 89 %
_ Max-Zeit 18:00 18:00 18:00 01:40 10:40 00:00 14:10 - - 08:40 12:00 13:00 10:20 17:50 03:20 00:00
Maximum _ 23,7 C 23,4 C 23,7 C 91 % 1013,1 hPa 0,4 l/m 16,1 km/h
S-SW (3 Bft)
- - 10 min 0,381 mm 1257 W/m 16,8 C 23,4 C 32,2 km/h
W-SW (5 Bft)
100 %
Durchschnitt _ 19,1 C 19,0 C 19,2 C 80 % 1011,9 hPa #1,8 l/m 6,3 km/h (2 Bft) SW - #9:50 h #3,070 mm 372 W/m 15,3 C 18,5 C 18,0 km/h (3 Bft) 98 %
PRIVATE WETTERSTATION BILLIGHEIM-ALLFELD - www.neckar-odenwald-wetter.de - Holger Sonntag